Ana Sayfa
METAR-TAF:

METAR-TAF

Havaalanları :

Camp Mabry

Austin, Teksas, Amerika Birleşik Devletleri

Enlem: 30-19N, Boylam: 097-46W, yükseklik: 200 m

Güncel hava durumu gözlemi

Rapor saat 23:51 UTC de 1 saat ve 1 dakika önce yapıldı.
Rüzgar değişken yönden 5 kt
Sıcaklık 34°C
Nem 50%
Basınç 1007 hPa
Görüş mesafesi: 16.1 km
Açık gökyüzü

METAR: KATT 192351Z AUTO VRB05KT 10SM CLR 34/22 A2973 RMK AO2 SLP053 T03440222 10361 20333 56014

Saat: 19:52 (00:52 UTC)


TAF: eksik

4.000'den fazla havaalanı için hava durumu gözlemleri ve tahminleri (METAR ve TAF raporları).

Kullanılabilir istasyonlar harita üzerinde sarı ve kırmızı noktalarla gösterilir.

İstasyonun adını görmek için fareyi noktanın üzerinde gezdirin.

Sonrasında hava gözlem ve tahminlerini görmek için tıklayın.

Haritayı değiştirmek için: yaklaştırmak için siyah artı işaretli yeşil düğmeye ve uzaklaştırmak için de eksi işaretli düğmeye hızla tıklayın; bitişik haritalar için yeşil okları kullanın.


METAR-TAF: